North Avondale, Colorado
Current Conditions -  °F | °C
As of 9:53 PM on Friday 24 Oct 2014 (Local Time) from KPUB Reporting Station
Clear Clear  
Wind Chill: 55°   Ceiling: Unl
Heat Index: 55°   Visibility: 10mi
Dew Point: 26°   Wind: 9mph
Humidity: 33%   Direction: 360°N
Pressure: 30.17"   Gusts: NA
Location:  38.0104°N, 104.392°W
Report Text: KPUB 250353Z AUTO 36008KT 10SM CLR 13/M03 A3017 RMK AO2 SLP175 T01281033
Loading
Personal Weather Stations






























Interactive Weather Map New forecast layout! Learn more

10-Day Weather Forecast

Advertisements
Track Severe Weather on mobile